sensor_id;sensor_type;location;lat;lon;timestamp;temperature;humidity
19870;DHT22;10097;50.862;4.696;2022-12-07T00:01:18;7.20;99.90
19870;DHT22;10097;50.862;4.696;2022-12-07T00:03:45;7.30;99.90
19870;DHT22;10097;50.862;4.696;2022-12-07T00:06:13;7.20;99.90
19870;DHT22;10097;50.862;4.696;2022-12-07T00:08:39;7.20;99.90
19870;DHT22;10097;50.862;4.696;2022-12-07T00:11:16;7.30;99.90
19870;DHT22;10097;50.862;4.696;2022-12-07T00:13:43;7.20;99.90
19870;DHT22;10097;50.862;4.696;2022-12-07T00:16:15;7.00;99.90
19870;DHT22;10097;50.862;4.696;2022-12-07T00:18:42;6.90;99.90
19870;DHT22;10097;50.862;4.696;2022-12-07T00:21:19;6.80;99.90
19870;DHT22;10097;50.862;4.696;2022-12-07T00:23:46;6.80;99.90
19870;DHT22;10097;50.862;4.696;2022-12-07T00:28:38;6.90;99.90
19870;DHT22;10097;50.862;4.696;2022-12-07T00:31:12;6.90;99.90
19870;DHT22;10097;50.862;4.696;2022-12-07T00:33:38;7.00;99.90
19870;DHT22;10097;50.862;4.696;2022-12-07T00:36:06;6.90;99.90
19870;DHT22;10097;50.862;4.696;2022-12-07T00:38:35;6.90;99.90
19870;DHT22;10097;50.862;4.696;2022-12-07T00:41:21;6.80;99.90
19870;DHT22;10097;50.862;4.696;2022-12-07T00:43:48;6.80;99.90
19870;DHT22;10097;50.862;4.696;2022-12-07T00:46:15;6.70;99.90
19870;DHT22;10097;50.862;4.696;2022-12-07T00:48:41;6.60;99.90
19870;DHT22;10097;50.862;4.696;2022-12-07T00:51:11;6.50;99.90
19870;DHT22;10097;50.862;4.696;2022-12-07T00:53:38;6.50;99.90
19870;DHT22;10097;50.862;4.696;2022-12-07T00:56:25;6.40;99.90
19870;DHT22;10097;50.862;4.696;2022-12-07T00:58:55;6.40;99.90
19870;DHT22;10097;50.862;4.696;2022-12-07T01:01:22;6.40;99.90
19870;DHT22;10097;50.862;4.696;2022-12-07T01:03:48;6.40;99.90
19870;DHT22;10097;50.862;4.696;2022-12-07T01:06:15;6.50;99.90
19870;DHT22;10097;50.862;4.696;2022-12-07T01:08:42;6.50;99.90
19870;DHT22;10097;50.862;4.696;2022-12-07T01:11:11;6.50;99.90
19870;DHT22;10097;50.862;4.696;2022-12-07T01:13:36;6.50;99.90
19870;DHT22;10097;50.862;4.696;2022-12-07T01:16:04;6.50;99.90
19870;DHT22;10097;50.862;4.696;2022-12-07T01:18:33;6.50;99.90
19870;DHT22;10097;50.862;4.696;2022-12-07T01:21:08;6.50;99.90
19870;DHT22;10097;50.862;4.696;2022-12-07T01:23:35;6.60;99.90
19870;DHT22;10097;50.862;4.696;2022-12-07T01:26:06;6.50;99.90
19870;DHT22;10097;50.862;4.696;2022-12-07T01:28:32;6.40;99.90
19870;DHT22;10097;50.862;4.696;2022-12-07T01:31:04;6.30;99.90
19870;DHT22;10097;50.862;4.696;2022-12-07T01:33:33;6.20;99.90
19870;DHT22;10097;50.862;4.696;2022-12-07T01:36:07;6.20;99.90
19870;DHT22;10097;50.862;4.696;2022-12-07T01:38:33;6.20;99.90
19870;DHT22;10097;50.862;4.696;2022-12-07T01:41:00;6.20;99.90
19870;DHT22;10097;50.862;4.696;2022-12-07T01:43:28;6.10;99.90
19870;DHT22;10097;50.862;4.696;2022-12-07T01:45:55;6.10;99.90
19870;DHT22;10097;50.862;4.696;2022-12-07T01:48:41;6.10;99.90
19870;DHT22;10097;50.862;4.696;2022-12-07T01:51:10;6.00;99.90
19870;DHT22;10097;50.862;4.696;2022-12-07T01:53:40;6.00;99.90
19870;DHT22;10097;50.862;4.696;2022-12-07T01:56:08;6.00;99.90
19870;DHT22;10097;50.862;4.696;2022-12-07T01:58:36;6.10;99.90
19870;DHT22;10097;50.862;4.696;2022-12-07T02:01:02;6.20;99.90
19870;DHT22;10097;50.862;4.696;2022-12-07T02:03:36;6.10;99.90
19870;DHT22;10097;50.862;4.696;2022-12-07T02:06:05;6.10;99.90
19870;DHT22;10097;50.862;4.696;2022-12-07T02:08:32;6.00;99.90
19870;DHT22;10097;50.862;4.696;2022-12-07T02:10:57;6.10;99.90
19870;DHT22;10097;50.862;4.696;2022-12-07T02:13:26;6.10;99.90
19870;DHT22;10097;50.862;4.696;2022-12-07T02:19:23;6.20;99.90
19870;DHT22;10097;50.862;4.696;2022-12-07T02:22:26;6.10;99.90
19870;DHT22;10097;50.862;4.696;2022-12-07T02:25:09;6.10;99.90
19870;DHT22;10097;50.862;4.696;2022-12-07T02:30:17;6.00;99.90
19870;DHT22;10097;50.862;4.696;2022-12-07T02:35:24;6.00;99.90
19870;DHT22;10097;50.862;4.696;2022-12-07T02:40:34;5.80;99.90
19870;DHT22;10097;50.862;4.696;2022-12-07T02:43:17;5.70;99.90
19870;DHT22;10097;50.862;4.696;2022-12-07T02:45:44;5.80;99.90
19870;DHT22;10097;50.862;4.696;2022-12-07T02:48:13;5.80;99.90
19870;DHT22;10097;50.862;4.696;2022-12-07T02:50:47;5.90;99.90
19870;DHT22;10097;50.862;4.696;2022-12-07T02:59:08;6.00;99.90
19870;DHT22;10097;50.862;4.696;2022-12-07T03:13:40;6.20;99.90
19870;DHT22;10097;50.862;4.696;2022-12-07T03:16:14;6.10;99.90
19870;DHT22;10097;50.862;4.696;2022-12-07T03:19:03;6.10;99.90
19870;DHT22;10097;50.862;4.696;2022-12-07T03:21:38;6.10;99.90
19870;DHT22;10097;50.862;4.696;2022-12-07T03:24:14;6.10;99.90
19870;DHT22;10097;50.862;4.696;2022-12-07T03:26:44;6.10;99.90
19870;DHT22;10097;50.862;4.696;2022-12-07T03:29:23;6.20;99.90
19870;DHT22;10097;50.862;4.696;2022-12-07T03:32:21;6.20;99.90
19870;DHT22;10097;50.862;4.696;2022-12-07T03:35:01;6.20;99.90
19870;DHT22;10097;50.862;4.696;2022-12-07T03:37:34;6.30;99.90
19870;DHT22;10097;50.862;4.696;2022-12-07T03:40:16;6.30;99.90
19870;DHT22;10097;50.862;4.696;2022-12-07T03:42:44;6.20;99.90
19870;DHT22;10097;50.862;4.696;2022-12-07T03:45:10;6.10;99.90
19870;DHT22;10097;50.862;4.696;2022-12-07T03:48:05;6.10;99.90
19870;DHT22;10097;50.862;4.696;2022-12-07T03:50:46;6.20;99.90
19870;DHT22;10097;50.862;4.696;2022-12-07T03:53:19;6.20;99.90
19870;DHT22;10097;50.862;4.696;2022-12-07T03:55:46;6.20;99.90
19870;DHT22;10097;50.862;4.696;2022-12-07T03:58:16;6.20;99.90
19870;DHT22;10097;50.862;4.696;2022-12-07T04:00:44;6.20;99.90
19870;DHT22;10097;50.862;4.696;2022-12-07T04:03:10;6.20;99.90
19870;DHT22;10097;50.862;4.696;2022-12-07T04:05:36;6.20;99.90
19870;DHT22;10097;50.862;4.696;2022-12-07T04:08:02;6.10;99.90
19870;DHT22;10097;50.862;4.696;2022-12-07T04:10:28;6.10;99.90
19870;DHT22;10097;50.862;4.696;2022-12-07T04:12:54;6.00;99.90
19870;DHT22;10097;50.862;4.696;2022-12-07T04:15:20;6.00;99.90
19870;DHT22;10097;50.862;4.696;2022-12-07T04:17:45;6.10;99.90
19870;DHT22;10097;50.862;4.696;2022-12-07T04:20:11;6.10;99.90
19870;DHT22;10097;50.862;4.696;2022-12-07T04:22:37;6.00;99.90
19870;DHT22;10097;50.862;4.696;2022-12-07T04:25:03;5.90;99.90
19870;DHT22;10097;50.862;4.696;2022-12-07T04:27:29;5.90;99.90
19870;DHT22;10097;50.862;4.696;2022-12-07T04:29:54;5.70;99.90
19870;DHT22;10097;50.862;4.696;2022-12-07T04:32:21;5.60;99.90
19870;DHT22;10097;50.862;4.696;2022-12-07T04:34:47;5.50;99.90
19870;DHT22;10097;50.862;4.696;2022-12-07T04:37:12;5.60;99.90
19870;DHT22;10097;50.862;4.696;2022-12-07T04:39:38;5.50;99.90
19870;DHT22;10097;50.862;4.696;2022-12-07T04:42:04;5.50;99.90
19870;DHT22;10097;50.862;4.696;2022-12-07T04:44:29;5.50;99.90
19870;DHT22;10097;50.862;4.696;2022-12-07T04:46:56;5.50;99.90
19870;DHT22;10097;50.862;4.696;2022-12-07T04:49:23;5.50;99.90
19870;DHT22;10097;50.862;4.696;2022-12-07T04:51:49;5.50;99.90
19870;DHT22;10097;50.862;4.696;2022-12-07T04:54:15;5.60;99.90
19870;DHT22;10097;50.862;4.696;2022-12-07T04:56:41;5.60;99.90
19870;DHT22;10097;50.862;4.696;2022-12-07T04:59:08;5.60;99.90
19870;DHT22;10097;50.862;4.696;2022-12-07T05:01:34;5.70;99.90
19870;DHT22;10097;50.862;4.696;2022-12-07T05:04:00;5.70;99.90
19870;DHT22;10097;50.862;4.696;2022-12-07T05:06:26;5.70;99.90
19870;DHT22;10097;50.862;4.696;2022-12-07T05:08:52;5.60;99.90
19870;DHT22;10097;50.862;4.696;2022-12-07T05:11:18;5.60;99.90
19870;DHT22;10097;50.862;4.696;2022-12-07T05:14:03;5.50;99.90
19870;DHT22;10097;50.862;4.696;2022-12-07T05:16:29;5.50;99.90
19870;DHT22;10097;50.862;4.696;2022-12-07T05:18:56;5.40;99.90
19870;DHT22;10097;50.862;4.696;2022-12-07T05:21:22;5.40;99.90
19870;DHT22;10097;50.862;4.696;2022-12-07T05:23:47;5.20;99.90
19870;DHT22;10097;50.862;4.696;2022-12-07T05:26:13;5.20;99.90
19870;DHT22;10097;50.862;4.696;2022-12-07T05:28:39;5.30;99.90
19870;DHT22;10097;50.862;4.696;2022-12-07T05:31:04;5.30;99.90
19870;DHT22;10097;50.862;4.696;2022-12-07T05:33:30;5.40;99.90
19870;DHT22;10097;50.862;4.696;2022-12-07T05:35:56;5.40;99.90
19870;DHT22;10097;50.862;4.696;2022-12-07T05:38:21;5.40;99.90
19870;DHT22;10097;50.862;4.696;2022-12-07T05:40:47;5.50;99.90
19870;DHT22;10097;50.862;4.696;2022-12-07T05:43:12;5.50;99.90
19870;DHT22;10097;50.862;4.696;2022-12-07T05:45:38;5.60;99.90
19870;DHT22;10097;50.862;4.696;2022-12-07T05:48:04;5.70;99.90
19870;DHT22;10097;50.862;4.696;2022-12-07T05:50:29;5.70;99.90
19870;DHT22;10097;50.862;4.696;2022-12-07T05:52:55;5.70;99.90
19870;DHT22;10097;50.862;4.696;2022-12-07T05:55:21;5.70;99.90
19870;DHT22;10097;50.862;4.696;2022-12-07T05:57:46;5.70;99.90
19870;DHT22;10097;50.862;4.696;2022-12-07T06:00:31;5.60;99.90
19870;DHT22;10097;50.862;4.696;2022-12-07T06:02:56;5.50;99.90
19870;DHT22;10097;50.862;4.696;2022-12-07T06:05:22;5.50;99.90
19870;DHT22;10097;50.862;4.696;2022-12-07T06:07:49;5.60;99.90
19870;DHT22;10097;50.862;4.696;2022-12-07T06:10:15;5.50;99.90
19870;DHT22;10097;50.862;4.696;2022-12-07T06:12:40;5.60;99.90
19870;DHT22;10097;50.862;4.696;2022-12-07T06:15:09;5.50;99.90
19870;DHT22;10097;50.862;4.696;2022-12-07T06:17:36;5.50;99.90
19870;DHT22;10097;50.862;4.696;2022-12-07T06:20:03;5.50;99.90
19870;DHT22;10097;50.862;4.696;2022-12-07T06:22:29;5.70;99.90
19870;DHT22;10097;50.862;4.696;2022-12-07T06:24:55;5.60;99.90
19870;DHT22;10097;50.862;4.696;2022-12-07T06:27:21;5.60;99.90
19870;DHT22;10097;50.862;4.696;2022-12-07T06:29:46;5.60;99.90
19870;DHT22;10097;50.862;4.696;2022-12-07T06:32:12;5.60;99.90
19870;DHT22;10097;50.862;4.696;2022-12-07T06:34:38;5.50;99.90
19870;DHT22;10097;50.862;4.696;2022-12-07T06:37:04;5.60;99.90
19870;DHT22;10097;50.862;4.696;2022-12-07T06:39:29;5.70;99.90
19870;DHT22;10097;50.862;4.696;2022-12-07T06:41:56;5.70;99.90
19870;DHT22;10097;50.862;4.696;2022-12-07T06:44:23;5.70;99.90
19870;DHT22;10097;50.862;4.696;2022-12-07T06:46:49;5.70;99.90
19870;DHT22;10097;50.862;4.696;2022-12-07T06:49:15;5.80;99.90
19870;DHT22;10097;50.862;4.696;2022-12-07T06:51:40;5.90;99.90
19870;DHT22;10097;50.862;4.696;2022-12-07T06:54:09;5.80;99.90
19870;DHT22;10097;50.862;4.696;2022-12-07T06:56:36;5.80;99.90
19870;DHT22;10097;50.862;4.696;2022-12-07T06:59:02;5.80;99.90
19870;DHT22;10097;50.862;4.696;2022-12-07T07:01:28;5.70;99.90
19870;DHT22;10097;50.862;4.696;2022-12-07T07:03:54;5.70;99.90
19870;DHT22;10097;50.862;4.696;2022-12-07T07:06:20;5.70;99.90
19870;DHT22;10097;50.862;4.696;2022-12-07T07:08:45;5.70;99.90
19870;DHT22;10097;50.862;4.696;2022-12-07T07:11:11;5.70;99.90
19870;DHT22;10097;50.862;4.696;2022-12-07T07:13:37;5.70;99.90
19870;DHT22;10097;50.862;4.696;2022-12-07T07:16:03;5.70;99.90
19870;DHT22;10097;50.862;4.696;2022-12-07T07:18:29;5.80;99.90
19870;DHT22;10097;50.862;4.696;2022-12-07T07:20:54;5.90;99.90
19870;DHT22;10097;50.862;4.696;2022-12-07T07:23:21;5.90;99.90
19870;DHT22;10097;50.862;4.696;2022-12-07T07:25:47;6.00;99.90
19870;DHT22;10097;50.862;4.696;2022-12-07T07:28:13;6.00;99.90
19870;DHT22;10097;50.862;4.696;2022-12-07T07:30:39;5.90;99.90
19870;DHT22;10097;50.862;4.696;2022-12-07T07:33:05;5.80;99.90
19870;DHT22;10097;50.862;4.696;2022-12-07T07:35:32;5.80;99.90
19870;DHT22;10097;50.862;4.696;2022-12-07T07:37:58;5.70;99.90
19870;DHT22;10097;50.862;4.696;2022-12-07T07:40:25;5.70;99.90
19870;DHT22;10097;50.862;4.696;2022-12-07T07:42:52;5.70;99.90
19870;DHT22;10097;50.862;4.696;2022-12-07T07:45:20;5.70;99.90
19870;DHT22;10097;50.862;4.696;2022-12-07T07:47:46;5.80;99.90
19870;DHT22;10097;50.862;4.696;2022-12-07T07:50:11;5.70;99.90
19870;DHT22;10097;50.862;4.696;2022-12-07T07:52:37;5.80;99.90
19870;DHT22;10097;50.862;4.696;2022-12-07T07:55:03;5.70;99.90
19870;DHT22;10097;50.862;4.696;2022-12-07T07:57:29;5.80;99.90
19870;DHT22;10097;50.862;4.696;2022-12-07T07:59:54;5.90;99.90
19870;DHT22;10097;50.862;4.696;2022-12-07T08:02:21;5.90;99.90
19870;DHT22;10097;50.862;4.696;2022-12-07T08:04:47;5.90;99.90
19870;DHT22;10097;50.862;4.696;2022-12-07T08:07:13;5.90;99.90
19870;DHT22;10097;50.862;4.696;2022-12-07T08:09:39;5.80;99.90
19870;DHT22;10097;50.862;4.696;2022-12-07T08:12:05;5.80;99.90
19870;DHT22;10097;50.862;4.696;2022-12-07T08:14:31;5.60;99.90
19870;DHT22;10097;50.862;4.696;2022-12-07T08:16:57;5.50;99.90
19870;DHT22;10097;50.862;4.696;2022-12-07T08:19:23;5.50;99.90
19870;DHT22;10097;50.862;4.696;2022-12-07T08:21:49;5.60;99.90
19870;DHT22;10097;50.862;4.696;2022-12-07T08:24:15;5.60;99.90
19870;DHT22;10097;50.862;4.696;2022-12-07T08:26:42;5.50;99.90
19870;DHT22;10097;50.862;4.696;2022-12-07T08:29:08;5.40;99.90
19870;DHT22;10097;50.862;4.696;2022-12-07T08:31:34;5.50;99.90
19870;DHT22;10097;50.862;4.696;2022-12-07T08:34:00;5.50;99.90
19870;DHT22;10097;50.862;4.696;2022-12-07T08:36:26;5.50;99.90
19870;DHT22;10097;50.862;4.696;2022-12-07T08:38:52;5.40;99.90
19870;DHT22;10097;50.862;4.696;2022-12-07T08:41:18;5.40;99.90
19870;DHT22;10097;50.862;4.696;2022-12-07T08:43:44;5.30;99.90
19870;DHT22;10097;50.862;4.696;2022-12-07T08:46:38;5.30;99.90
19870;DHT22;10097;50.862;4.696;2022-12-07T08:49:16;5.30;99.90
19870;DHT22;10097;50.862;4.696;2022-12-07T08:51:43;5.30;99.90
19870;DHT22;10097;50.862;4.696;2022-12-07T08:54:12;5.30;99.90
19870;DHT22;10097;50.862;4.696;2022-12-07T08:56:39;5.40;99.90
19870;DHT22;10097;50.862;4.696;2022-12-07T08:59:05;5.50;99.90
19870;DHT22;10097;50.862;4.696;2022-12-07T09:01:31;5.70;99.90
19870;DHT22;10097;50.862;4.696;2022-12-07T09:03:58;5.90;99.90
19870;DHT22;10097;50.862;4.696;2022-12-07T09:06:23;6.10;99.90
19870;DHT22;10097;50.862;4.696;2022-12-07T09:08:52;6.20;99.90
19870;DHT22;10097;50.862;4.696;2022-12-07T09:11:19;6.30;99.90
19870;DHT22;10097;50.862;4.696;2022-12-07T09:13:44;6.40;99.90
19870;DHT22;10097;50.862;4.696;2022-12-07T09:16:10;6.40;99.90
19870;DHT22;10097;50.862;4.696;2022-12-07T09:18:36;6.40;99.90
19870;DHT22;10097;50.862;4.696;2022-12-07T09:21:02;6.60;99.90
19870;DHT22;10097;50.862;4.696;2022-12-07T09:23:27;6.60;99.90
19870;DHT22;10097;50.862;4.696;2022-12-07T09:25:53;6.60;99.90
19870;DHT22;10097;50.862;4.696;2022-12-07T09:28:18;6.60;99.90
19870;DHT22;10097;50.862;4.696;2022-12-07T09:30:48;6.60;99.90
19870;DHT22;10097;50.862;4.696;2022-12-07T09:33:13;6.70;99.90
19870;DHT22;10097;50.862;4.696;2022-12-07T09:35:44;6.80;99.90
19870;DHT22;10097;50.862;4.696;2022-12-07T09:38:10;6.90;99.90
19870;DHT22;10097;50.862;4.696;2022-12-07T09:40:36;7.00;99.90
19870;DHT22;10097;50.862;4.696;2022-12-07T09:43:01;7.00;99.90
19870;DHT22;10097;50.862;4.696;2022-12-07T09:45:33;7.00;99.90
19870;DHT22;10097;50.862;4.696;2022-12-07T09:48:00;7.10;99.90
19870;DHT22;10097;50.862;4.696;2022-12-07T09:50:28;7.40;99.90
19870;DHT22;10097;50.862;4.696;2022-12-07T09:53:03;7.40;99.90
19870;DHT22;10097;50.862;4.696;2022-12-07T09:55:31;7.40;99.90
19870;DHT22;10097;50.862;4.696;2022-12-07T09:57:59;7.60;99.90
19870;DHT22;10097;50.862;4.696;2022-12-07T10:00:25;7.80;99.90
19870;DHT22;10097;50.862;4.696;2022-12-07T10:02:58;7.90;99.90
19870;DHT22;10097;50.862;4.696;2022-12-07T10:05:35;7.90;99.90
19870;DHT22;10097;50.862;4.696;2022-12-07T10:08:04;7.90;99.90
19870;DHT22;10097;50.862;4.696;2022-12-07T10:10:32;7.90;99.90
19870;DHT22;10097;50.862;4.696;2022-12-07T10:13:09;7.80;99.90
19870;DHT22;10097;50.862;4.696;2022-12-07T10:15:49;7.80;99.90
19870;DHT22;10097;50.862;4.696;2022-12-07T10:18:30;7.60;99.90
19870;DHT22;10097;50.862;4.696;2022-12-07T10:23:35;7.70;99.90
19870;DHT22;10097;50.862;4.696;2022-12-07T10:29:38;7.80;99.90
19870;DHT22;10097;50.862;4.696;2022-12-07T10:34:42;7.90;99.90
19870;DHT22;10097;50.862;4.696;2022-12-07T10:39:48;8.10;99.90
19870;DHT22;10097;50.862;4.696;2022-12-07T10:42:22;8.20;99.90
19870;DHT22;10097;50.862;4.696;2022-12-07T10:44:49;8.20;99.90
19870;DHT22;10097;50.862;4.696;2022-12-07T10:47:29;8.20;99.90
19870;DHT22;10097;50.862;4.696;2022-12-07T10:50:10;8.40;99.90
19870;DHT22;10097;50.862;4.696;2022-12-07T10:58:37;8.70;99.90
19870;DHT22;10097;50.862;4.696;2022-12-07T11:09:16;8.90;99.90
19870;DHT22;10097;50.862;4.696;2022-12-07T11:12:11;8.80;99.90
19870;DHT22;10097;50.862;4.696;2022-12-07T11:18:24;8.80;99.90
19870;DHT22;10097;50.862;4.696;2022-12-07T11:26:49;9.00;99.90
19870;DHT22;10097;50.862;4.696;2022-12-07T11:35:45;8.90;99.90
19870;DHT22;10097;50.862;4.696;2022-12-07T11:38:17;8.90;99.90
19870;DHT22;10097;50.862;4.696;2022-12-07T11:40:48;8.80;99.90
19870;DHT22;10097;50.862;4.696;2022-12-07T11:43:25;8.60;99.90
19870;DHT22;10097;50.862;4.696;2022-12-07T11:46:13;8.50;99.90
19870;DHT22;10097;50.862;4.696;2022-12-07T11:51:20;8.30;99.90
19870;DHT22;10097;50.862;4.696;2022-12-07T11:53:55;8.30;99.90
19870;DHT22;10097;50.862;4.696;2022-12-07T11:56:27;8.30;99.90
19870;DHT22;10097;50.862;4.696;2022-12-07T11:59:02;8.30;99.90
19870;DHT22;10097;50.862;4.696;2022-12-07T12:06:43;8.60;99.90
19870;DHT22;10097;50.862;4.696;2022-12-07T12:09:12;8.70;99.90
19870;DHT22;10097;50.862;4.696;2022-12-07T12:12:07;8.90;99.90
19870;DHT22;10097;50.862;4.696;2022-12-07T12:14:57;9.10;99.90
19870;DHT22;10097;50.862;4.696;2022-12-07T12:17:38;9.20;99.90
19870;DHT22;10097;50.862;4.696;2022-12-07T12:20:29;9.10;99.90
19870;DHT22;10097;50.862;4.696;2022-12-07T12:25:44;9.30;99.90
19870;DHT22;10097;50.862;4.696;2022-12-07T12:28:29;9.10;99.90
19870;DHT22;10097;50.862;4.696;2022-12-07T12:31:32;8.90;99.90
19870;DHT22;10097;50.862;4.696;2022-12-07T12:34:02;8.90;99.90
19870;DHT22;10097;50.862;4.696;2022-12-07T12:46:55;8.70;99.90
19870;DHT22;10097;50.862;4.696;2022-12-07T12:51:57;8.60;99.90
19870;DHT22;10097;50.862;4.696;2022-12-07T12:57:15;8.50;99.90
19870;DHT22;10097;50.862;4.696;2022-12-07T13:02:31;8.10;99.90
19870;DHT22;10097;50.862;4.696;2022-12-07T13:10:33;8.40;99.90
19870;DHT22;10097;50.862;4.696;2022-12-07T13:26:18;9.40;99.90
19870;DHT22;10097;50.862;4.696;2022-12-07T13:29:15;9.40;99.90
19870;DHT22;10097;50.862;4.696;2022-12-07T13:31:47;9.20;99.90
19870;DHT22;10097;50.862;4.696;2022-12-07T13:37:12;9.50;99.90
19870;DHT22;10097;50.862;4.696;2022-12-07T13:39:54;9.40;99.90
19870;DHT22;10097;50.862;4.696;2022-12-07T13:44:52;9.30;99.90
19870;DHT22;10097;50.862;4.696;2022-12-07T13:47:41;9.50;99.90
19870;DHT22;10097;50.862;4.696;2022-12-07T13:50:30;9.70;99.90
19870;DHT22;10097;50.862;4.696;2022-12-07T13:53:01;9.80;99.90
19870;DHT22;10097;50.862;4.696;2022-12-07T13:55:28;9.70;99.90
19870;DHT22;10097;50.862;4.696;2022-12-07T13:57:54;9.70;99.90
19870;DHT22;10097;50.862;4.696;2022-12-07T14:00:26;9.70;99.90
19870;DHT22;10097;50.862;4.696;2022-12-07T14:03:01;9.60;99.90
19870;DHT22;10097;50.862;4.696;2022-12-07T14:05:29;9.40;99.90
19870;DHT22;10097;50.862;4.696;2022-12-07T14:10:34;8.90;99.90
19870;DHT22;10097;50.862;4.696;2022-12-07T14:13:01;8.80;99.90
19870;DHT22;10097;50.862;4.696;2022-12-07T14:15:32;8.80;99.90
19870;DHT22;10097;50.862;4.696;2022-12-07T14:17:59;8.80;99.90
19870;DHT22;10097;50.862;4.696;2022-12-07T14:20:39;8.70;99.90
19870;DHT22;10097;50.862;4.696;2022-12-07T14:23:25;8.70;99.90
19870;DHT22;10097;50.862;4.696;2022-12-07T14:25:53;8.70;99.90
19870;DHT22;10097;50.862;4.696;2022-12-07T14:28:27;8.70;99.90
19870;DHT22;10097;50.862;4.696;2022-12-07T14:30:52;8.70;99.90
19870;DHT22;10097;50.862;4.696;2022-12-07T14:33:18;8.70;99.90
19870;DHT22;10097;50.862;4.696;2022-12-07T14:35:44;8.70;99.90
19870;DHT22;10097;50.862;4.696;2022-12-07T14:38:10;8.70;99.90
19870;DHT22;10097;50.862;4.696;2022-12-07T14:40:36;8.70;99.90
19870;DHT22;10097;50.862;4.696;2022-12-07T14:43:11;8.50;99.90
19870;DHT22;10097;50.862;4.696;2022-12-07T14:45:37;8.50;99.90
19870;DHT22;10097;50.862;4.696;2022-12-07T14:48:05;8.10;99.90
19870;DHT22;10097;50.862;4.696;2022-12-07T14:50:36;7.60;99.90
19870;DHT22;10097;50.862;4.696;2022-12-07T14:53:11;7.30;99.90
19870;DHT22;10097;50.862;4.696;2022-12-07T14:55:38;7.10;99.90
19870;DHT22;10097;50.862;4.696;2022-12-07T14:58:04;7.00;99.90
19870;DHT22;10097;50.862;4.696;2022-12-07T15:00:29;7.00;99.90
19870;DHT22;10097;50.862;4.696;2022-12-07T15:02:56;6.90;99.90
19870;DHT22;10097;50.862;4.696;2022-12-07T15:05:22;6.90;99.90
19870;DHT22;10097;50.862;4.696;2022-12-07T15:07:48;6.90;99.90
19870;DHT22;10097;50.862;4.696;2022-12-07T15:10:26;6.90;99.90
19870;DHT22;10097;50.862;4.696;2022-12-07T15:12:57;6.80;99.90
19870;DHT22;10097;50.862;4.696;2022-12-07T15:15:50;6.80;99.90
19870;DHT22;10097;50.862;4.696;2022-12-07T15:18:16;6.90;99.90
19870;DHT22;10097;50.862;4.696;2022-12-07T15:20:42;6.80;99.90
19870;DHT22;10097;50.862;4.696;2022-12-07T15:23:09;6.70;99.90
19870;DHT22;10097;50.862;4.696;2022-12-07T15:25:34;6.70;99.90
19870;DHT22;10097;50.862;4.696;2022-12-07T15:28:00;6.70;99.90
19870;DHT22;10097;50.862;4.696;2022-12-07T15:30:26;6.60;99.90
19870;DHT22;10097;50.862;4.696;2022-12-07T15:32:52;6.60;99.90
19870;DHT22;10097;50.862;4.696;2022-12-07T15:35:18;6.50;99.90
19870;DHT22;10097;50.862;4.696;2022-12-07T15:37:44;6.60;99.90
19870;DHT22;10097;50.862;4.696;2022-12-07T15:40:10;6.60;99.90
19870;DHT22;10097;50.862;4.696;2022-12-07T15:42:36;6.60;99.90
19870;DHT22;10097;50.862;4.696;2022-12-07T15:45:04;6.50;99.90
19870;DHT22;10097;50.862;4.696;2022-12-07T15:47:39;6.50;99.90
19870;DHT22;10097;50.862;4.696;2022-12-07T15:50:08;6.60;99.90
19870;DHT22;10097;50.862;4.696;2022-12-07T15:52:34;6.60;99.90
19870;DHT22;10097;50.862;4.696;2022-12-07T15:54:59;6.70;99.90
19870;DHT22;10097;50.862;4.696;2022-12-07T15:57:26;6.70;99.90
19870;DHT22;10097;50.862;4.696;2022-12-07T15:59:52;6.70;99.90
19870;DHT22;10097;50.862;4.696;2022-12-07T16:02:18;6.70;99.90
19870;DHT22;10097;50.862;4.696;2022-12-07T16:04:44;6.70;99.90
19870;DHT22;10097;50.862;4.696;2022-12-07T16:07:10;6.70;99.90
19870;DHT22;10097;50.862;4.696;2022-12-07T16:09:37;6.70;99.90
19870;DHT22;10097;50.862;4.696;2022-12-07T16:12:03;6.80;99.90
19870;DHT22;10097;50.862;4.696;2022-12-07T16:14:29;6.90;99.90
19870;DHT22;10097;50.862;4.696;2022-12-07T16:16:57;7.00;99.90
19870;DHT22;10097;50.862;4.696;2022-12-07T16:19:23;7.00;99.90
19870;DHT22;10097;50.862;4.696;2022-12-07T16:21:48;7.10;99.90
19870;DHT22;10097;50.862;4.696;2022-12-07T16:24:14;7.00;99.90
19870;DHT22;10097;50.862;4.696;2022-12-07T16:26:40;7.00;99.90
19870;DHT22;10097;50.862;4.696;2022-12-07T16:29:06;7.00;99.90
19870;DHT22;10097;50.862;4.696;2022-12-07T16:31:32;7.10;99.90
19870;DHT22;10097;50.862;4.696;2022-12-07T16:33:58;7.00;99.90
19870;DHT22;10097;50.862;4.696;2022-12-07T16:36:24;7.10;99.90
19870;DHT22;10097;50.862;4.696;2022-12-07T16:38:51;7.00;99.90
19870;DHT22;10097;50.862;4.696;2022-12-07T16:41:17;7.00;99.90
19870;DHT22;10097;50.862;4.696;2022-12-07T16:43:43;6.90;99.90
19870;DHT22;10097;50.862;4.696;2022-12-07T16:46:09;6.80;99.90
19870;DHT22;10097;50.862;4.696;2022-12-07T16:48:38;6.80;99.90
19870;DHT22;10097;50.862;4.696;2022-12-07T16:51:06;7.00;99.90
19870;DHT22;10097;50.862;4.696;2022-12-07T16:53:35;7.00;99.90
19870;DHT22;10097;50.862;4.696;2022-12-07T16:56:00;7.00;99.90
19870;DHT22;10097;50.862;4.696;2022-12-07T16:58:26;6.90;99.90
19870;DHT22;10097;50.862;4.696;2022-12-07T17:00:52;6.90;99.90
19870;DHT22;10097;50.862;4.696;2022-12-07T17:03:17;6.90;99.90
19870;DHT22;10097;50.862;4.696;2022-12-07T17:05:44;7.00;99.90
19870;DHT22;10097;50.862;4.696;2022-12-07T17:08:12;7.00;99.90
19870;DHT22;10097;50.862;4.696;2022-12-07T17:10:40;6.90;99.90
19870;DHT22;10097;50.862;4.696;2022-12-07T17:13:06;7.00;99.90
19870;DHT22;10097;50.862;4.696;2022-12-07T17:15:58;6.90;99.90
19870;DHT22;10097;50.862;4.696;2022-12-07T17:18:28;6.90;99.90
19870;DHT22;10097;50.862;4.696;2022-12-07T17:20:53;7.00;99.90
19870;DHT22;10097;50.862;4.696;2022-12-07T17:23:19;7.00;99.90
19870;DHT22;10097;50.862;4.696;2022-12-07T17:25:45;6.90;99.90
19870;DHT22;10097;50.862;4.696;2022-12-07T17:28:11;6.80;99.90
19870;DHT22;10097;50.862;4.696;2022-12-07T17:30:38;6.80;99.90
19870;DHT22;10097;50.862;4.696;2022-12-07T17:33:03;6.80;99.90
19870;DHT22;10097;50.862;4.696;2022-12-07T17:35:29;6.90;99.90
19870;DHT22;10097;50.862;4.696;2022-12-07T17:37:55;6.90;99.90
19870;DHT22;10097;50.862;4.696;2022-12-07T17:40:21;6.80;99.90
19870;DHT22;10097;50.862;4.696;2022-12-07T17:42:47;6.80;99.90
19870;DHT22;10097;50.862;4.696;2022-12-07T17:45:16;6.90;99.90
19870;DHT22;10097;50.862;4.696;2022-12-07T17:47:42;6.90;99.90
19870;DHT22;10097;50.862;4.696;2022-12-07T17:50:09;6.90;99.90
19870;DHT22;10097;50.862;4.696;2022-12-07T17:52:38;6.80;99.90
19870;DHT22;10097;50.862;4.696;2022-12-07T17:55:22;6.80;99.90
19870;DHT22;10097;50.862;4.696;2022-12-07T17:57:48;6.70;99.90
19870;DHT22;10097;50.862;4.696;2022-12-07T18:00:14;6.70;99.90
19870;DHT22;10097;50.862;4.696;2022-12-07T18:02:41;6.60;99.90
19870;DHT22;10097;50.862;4.696;2022-12-07T18:05:07;6.60;99.90
19870;DHT22;10097;50.862;4.696;2022-12-07T18:07:32;6.60;99.90